Station Historical Data
Daily Summary for September 8, 2017 Units:  Metric    English   Both
« Previous Day
Next Day »
Daily Weekly Monthly Yearly Custom
  High: Low: Average:
Temperature: 16.8 °C 11.2 °C 13.7 °C
Dew Point: 12.3 °C 8.9 °C 10.3 °C
Humidity: 91% 68% 80%
Wind Speed: 12.9km/h 0km/h 2.3km/h
Wind Gust: 19.3km/h - -
Wind- - SW
Pressure: 1025.6 hPa 1014.4 hPa -
Precipitation: 0 mm    
Historical Graphs
 
 
Tabular Data for September 8, 2017
Time Temperature Dew Point Pressure Wind Wind Speed Wind Gust Humidity Rainfall Rate (Hourly)
00:04 13.1 °C 10.8 °C 1014.8 hPa SW 3.2 km/h 11.3 km/h 86% 0 mm
00:09 12.9 °C 10.6 °C 1014.8 hPa SW 4.8 km/h 14.5 km/h 86% 0 mm
00:14 12.8 °C 10.5 °C 1014.8 hPa SSW 6.4 km/h 17.7 km/h 86% 0.25 mm
00:19 12.8 °C 10.5 °C 1014.4 hPa SW 6.4 km/h 12.9 km/h 86% 0.25 mm
00:24 12.7 °C 10.2 °C 1014.8 hPa SSW 4.8 km/h 19.3 km/h 85% 0.25 mm
00:29 12.7 °C 10.1 °C 1014.8 hPa SW 8 km/h 19.3 km/h 84% 0.25 mm
00:34 12.7 °C 9.8 °C 1014.8 hPa WSW 4.8 km/h 12.9 km/h 83% 0.25 mm
00:39 12.7 °C 9.8 °C 1014.8 hPa Calm   6.4 km/h 83% 0.25 mm
00:44 12.6 °C 9.8 °C 1014.8 hPa WSW 1.6 km/h 6.4 km/h 83% 0.25 mm
00:49 12.6 °C 9.7 °C 1014.8 hPa NNE 1.6 km/h 8 km/h 83% 0.25 mm
00:54 12.6 °C 9.9 °C 1014.8 hPa Calm   3.2 km/h 84% 0.25 mm
00:59 12.6 °C 9.9 °C 1014.8 hPa Calm   3.2 km/h 84% 0.25 mm
01:04 12.6 °C 9.9 °C 1014.8 hPa Calm   3.2 km/h 84% 0.25 mm
01:09 12.5 °C 9.9 °C 1015.1 hPa NW 1.6 km/h 6.4 km/h 84% 0.25 mm
01:14 12.5 °C 9.9 °C 1014.8 hPa WNW 1.6 km/h 6.4 km/h 84% 0 mm
01:19 12.5 °C 9.9 °C 1015.1 hPa WSW 1.6 km/h 4.8 km/h 84% 0 mm
01:24 12.4 °C 9.8 °C 1014.8 hPa Calm   4.8 km/h 84% 0 mm
01:29 12.4 °C 9.8 °C 1015.1 hPa Calm   3.2 km/h 84% 0 mm
01:34 12.3 °C 9.7 °C 1015.1 hPa SW 1.6 km/h 8 km/h 84% 0 mm
01:39 12.3 °C 9.7 °C 1014.8 hPa SW 4.8 km/h 9.7 km/h 84% 0 mm
01:44 12.2 °C 9.7 °C 1014.8 hPa South 3.2 km/h 9.7 km/h 85% 0 mm
01:49 12.1 °C 9.7 °C 1015.1 hPa SSW 3.2 km/h 14.5 km/h 85% 0 mm
01:54 12 °C 9.6 °C 1015.1 hPa SW 4.8 km/h 14.5 km/h 85% 0 mm
01:59 11.9 °C 9.6 °C 1015.1 hPa South 3.2 km/h 9.7 km/h 86% 0 mm
02:04 11.8 °C 9.7 °C 1015.1 hPa SSW 3.2 km/h 9.7 km/h 87% 0 mm
02:09 11.8 °C 9.7 °C 1015.1 hPa SSW 3.2 km/h 9.7 km/h 87% 0 mm
02:14 11.8 °C 9.7 °C 1015.1 hPa SSW 1.6 km/h 9.7 km/h 87% 0 mm
02:19 11.7 °C 9.7 °C 1014.8 hPa South 1.6 km/h 4.8 km/h 88% 0 mm
02:24 11.6 °C 9.7 °C 1015.1 hPa South 1.6 km/h 4.8 km/h 88% 0 mm
02:29 11.6 °C 9.7 °C 1015.1 hPa SSW 1.6 km/h 8 km/h 88% 0 mm
02:34 11.6 °C 9.8 °C 1015.1 hPa Calm   6.4 km/h 89% 0 mm
02:39 11.7 °C 9.9 °C 1015.1 hPa SSW 3.2 km/h 8 km/h 89% 0 mm
02:44 11.7 °C 9.9 °C 1015.5 hPa SSW 1.6 km/h 12.9 km/h 89% 0.25 mm
02:49 11.8 °C 10 °C 1015.1 hPa SSW 4.8 km/h 11.3 km/h 89% 0.25 mm
02:54 11.9 °C 10.1 °C 1015.5 hPa SSW 4.8 km/h 11.3 km/h 89% 0.25 mm
02:59 11.9 °C 10.1 °C 1015.1 hPa SSW 4.8 km/h 9.7 km/h 89% 0.25 mm
03:04 11.9 °C 10.2 °C 1015.5 hPa SSW 3.2 km/h 9.7 km/h 89% 0.25 mm
03:09 11.9 °C 10.1 °C 1015.5 hPa SSW 1.6 km/h 8 km/h 89% 0.51 mm
03:14 11.8 °C 10 °C 1015.5 hPa SSW 1.6 km/h 8 km/h 89% 0.51 mm
03:19 11.7 °C 9.9 °C 1015.5 hPa Calm   8 km/h 89% 0.51 mm
03:24 11.7 °C 9.9 °C 1015.5 hPa SSW 3.2 km/h 4.8 km/h 89% 0.76 mm
03:29 11.6 °C 9.8 °C 1015.5 hPa SSW 3.2 km/h 6.4 km/h 89% 0.76 mm
03:34 11.6 °C 9.8 °C 1015.5 hPa SSW 3.2 km/h 8 km/h 89% 0.76 mm
03:39 11.7 °C 9.9 °C 1015.5 hPa SSW 3.2 km/h 8 km/h 89% 0.76 mm
03:44 11.6 °C 9.9 °C 1015.5 hPa South 3.2 km/h 11.3 km/h 90% 0.51 mm
03:49 11.6 °C 9.9 °C 1015.8 hPa SSW 6.4 km/h 9.7 km/h 90% 0.76 mm
03:54 11.6 °C 9.9 °C 1015.8 hPa SW 1.6 km/h 6.4 km/h 90% 1.02 mm
03:59 11.7 °C 10.1 °C 1015.8 hPa Calm   6.4 km/h 90% 1.02 mm
04:04 11.7 °C 10.1 °C 1015.8 hPa Calm   6.4 km/h 90% 1.02 mm
04:09 11.7 °C 10.1 °C 1015.8 hPa Calm   4.8 km/h 90% 0.76 mm
04:14 11.6 °C 10 °C 1015.8 hPa Calm   4.8 km/h 90% 0.76 mm
04:19 11.6 °C 9.9 °C 1015.8 hPa South 1.6 km/h 4.8 km/h 90% 0.76 mm
04:24 11.6 °C 9.9 °C 1015.8 hPa Calm   6.4 km/h 90% 0.51 mm
04:29 11.6 °C 9.9 °C 1015.8 hPa Calm     90% 0.51 mm
04:34 11.6 °C 9.9 °C 1016.1 hPa Calm     90% 0.51 mm
04:39 11.6 °C 10.2 °C 1016.1 hPa Calm     91% 0.51 mm
04:44 11.7 °C 10.2 °C 1016.1 hPa Calm     91% 0.51 mm
04:49 11.7 °C 10.3 °C 1016.1 hPa Calm     91% 0.25 mm
04:54 11.7 °C 10.3 °C 1016.1 hPa Calm     91% 0 mm
04:59 11.7 °C 10.3 °C 1016.1 hPa SSW 1.6 km/h 6.4 km/h 91% 0 mm
05:04 11.7 °C 10.3 °C 1016.1 hPa WNW 4.8 km/h 6.4 km/h 91% 0 mm
05:09 11.7 °C 10.1 °C 1016.1 hPa WSW 1.6 km/h 8 km/h 90% 0 mm
05:14 11.7 °C 10.1 °C 1016.1 hPa WSW 8 km/h 8 km/h 90% 0 mm
05:19 11.7 °C 10.1 °C 1016.5 hPa West 6.4 km/h 11.3 km/h 90% 0 mm
05:24 11.7 °C 10.1 °C 1016.5 hPa SW 1.6 km/h 6.4 km/h 90% 0 mm
05:29 11.8 °C 10.2 °C 1016.8 hPa SSW 4.8 km/h 8 km/h 90% 0 mm
05:34 11.7 °C 9.9 °C 1016.8 hPa SW 1.6 km/h 6.4 km/h 89% 0 mm
05:39 11.6 °C 9.8 °C 1016.8 hPa SW 1.6 km/h 6.4 km/h 89% 0 mm
05:44 11.4 °C 9.7 °C 1016.8 hPa SW 1.6 km/h 8 km/h 89% 0 mm
05:49 11.3 °C 9.6 °C 1016.8 hPa SW 1.6 km/h 8 km/h 89% 0 mm
05:54 11.3 °C 9.6 °C 1016.8 hPa Calm   8 km/h 89% 0 mm
05:59 11.2 °C 9.5 °C 1016.8 hPa Calm     89% 0 mm
06:04 11.2 °C 9.5 °C 1017.2 hPa Calm     89% 0 mm
06:09 11.2 °C 9.5 °C 1017.2 hPa Calm     89% 0 mm
06:14 11.2 °C 9.5 °C 1017.2 hPa Calm     89% 0.25 mm
06:19 11.2 °C 9.5 °C 1017.2 hPa SSE 3.2 km/h 12.9 km/h 89% 0.51 mm
06:24 11.2 °C 9.5 °C 1017.2 hPa Calm   6.4 km/h 89% 0.51 mm
06:29 11.2 °C 9.7 °C 1017.2 hPa South 1.6 km/h 4.8 km/h 90% 0.51 mm
06:34 11.3 °C 9.7 °C 1017.2 hPa South 1.6 km/h 3.2 km/h 90% 0.51 mm
06:39 11.3 °C 9.6 °C 1017.2 hPa Calm   3.2 km/h 89% 0.76 mm
06:44 11.3 °C 9.7 °C 1017.5 hPa Calm   3.2 km/h 90% 0.76 mm
06:49 11.3 °C 9.8 °C 1017.5 hPa Calm     90% 1.02 mm
06:54 11.3 °C 9.8 °C 1017.5 hPa Calm     90% 1.02 mm
06:59 11.3 °C 9.8 °C 1017.8 hPa Calm     90% 1.02 mm
07:04 11.4 °C 9.8 °C 1017.8 hPa Calm     90% 1.27 mm
07:09 11.3 °C 9.7 °C 1017.8 hPa Calm     90% 1.52 mm
07:14 11.3 °C 9.7 °C 1017.8 hPa Calm     90% 1.52 mm
07:19 11.3 °C 9.8 °C 1017.8 hPa Calm     90% 1.27 mm
07:24 11.3 °C 9.8 °C 1017.8 hPa Calm     90% 1.52 mm
07:29 11.4 °C 9.8 °C 1017.8 hPa Calm     90% 1.52 mm
07:34 11.4 °C 10 °C 1017.8 hPa Calm     91% 1.52 mm
07:39 11.5 °C 10.1 °C 1017.8 hPa Calm     91% 1.27 mm
07:44 11.6 °C 10.1 °C 1017.8 hPa Calm     91% 1.27 mm
07:49 11.6 °C 10.1 °C 1017.8 hPa SSE 1.6 km/h 4.8 km/h 91% 1.02 mm
07:54 11.5 °C 10.1 °C 1018.2 hPa SSE 1.6 km/h 4.8 km/h 91% 1.02 mm
07:59 11.6 °C 10.1 °C 1018.2 hPa Calm   4.8 km/h 91% 1.02 mm
08:04 11.7 °C 10.2 °C 1018.2 hPa SSE 3.2 km/h 6.4 km/h 91% 0.76 mm
08:09 11.8 °C 10.3 °C 1018.2 hPa Calm   4.8 km/h 91% 0.51 mm
08:14 11.8 °C 10.2 °C 1018.2 hPa Calm   6.4 km/h 90% 0.25 mm
08:19 11.9 °C 10.3 °C 1018.5 hPa SSW 1.6 km/h 6.4 km/h 90% 0.25 mm
08:24 12.1 °C 10.4 °C 1018.5 hPa SSW 1.6 km/h 6.4 km/h 90% 0 mm
08:29 12 °C 10.4 °C 1018.5 hPa South 1.6 km/h 4.8 km/h 90% 0 mm
08:34 12.1 °C 10.4 °C 1018.5 hPa South 1.6 km/h 6.4 km/h 90% 0 mm
08:39 12.1 °C 10.3 °C 1018.5 hPa SSW 3.2 km/h 6.4 km/h 89% 0 mm
08:44 12.3 °C 10.7 °C 1018.5 hPa Calm   6.4 km/h 90% 0 mm
08:49 12.6 °C 10.8 °C 1018.5 hPa SSW 1.6 km/h 6.4 km/h 89% 0 mm
08:54 12.7 °C 10.7 °C 1018.5 hPa Calm   6.4 km/h 88% 0 mm
08:59 13.2 °C 11.2 °C 1018.5 hPa SW 4.8 km/h 4.8 km/h 88% 0 mm
09:04 13.4 °C 11.3 °C 1018.5 hPa SW 3.2 km/h 6.4 km/h 87% 0 mm
09:09 13.5 °C 10.8 °C 1018.5 hPa SW 4.8 km/h 6.4 km/h 84% 0 mm
09:14 13.7 °C 10.9 °C 1018.8 hPa SW 1.6 km/h 8 km/h 83% 0 mm
09:19 14 °C 11.2 °C 1018.8 hPa SSW 3.2 km/h 8 km/h 83% 0 mm
09:24 14.2 °C 10.9 °C 1018.8 hPa SW 1.6 km/h 6.4 km/h 81% 0 mm
09:29 14.4 °C 11.2 °C 1018.8 hPa SW 3.2 km/h 6.4 km/h 81% 0 mm
09:34 14.6 °C 11.2 °C 1019.2 hPa SW 1.6 km/h 8 km/h 80% 0 mm
09:39 14.7 °C 11.3 °C 1019.2 hPa SW 1.6 km/h 8 km/h 80% 0 mm
09:44 14.9 °C 11.3 °C 1019.2 hPa SW 1.6 km/h 4.8 km/h 79% 0 mm
09:49 15.5 °C 11.1 °C 1019.2 hPa South 1.6 km/h 4.8 km/h 75% 0 mm
09:54 15.4 °C 11.4 °C 1019.2 hPa SW 1.6 km/h 4.8 km/h 77% 0 mm
09:59 15.3 °C 11.1 °C 1019.2 hPa WNW 1.6 km/h 4.8 km/h 76% 0 mm
10:04 15.2 °C 10.9 °C 1019.2 hPa Calm   6.4 km/h 76% 0 mm
10:09 15.1 °C 10.8 °C 1019.2 hPa NNW 3.2 km/h 8 km/h 76% 0 mm
10:14 15 °C 11 °C 1019.2 hPa NW 1.6 km/h 6.4 km/h 77% 0 mm
10:19 15 °C 11 °C 1019.5 hPa NNW 3.2 km/h 4.8 km/h 77% 0 mm
10:24 14.9 °C 11.2 °C 1019.5 hPa NW 3.2 km/h 6.4 km/h 78% 0 mm
10:29 15.1 °C 11.1 °C 1019.5 hPa NW 3.2 km/h 6.4 km/h 77% 0 mm
10:34 15.3 °C 11.1 °C 1019.5 hPa WNW 3.2 km/h 9.7 km/h 76% 0 mm
10:39 15.4 °C 11.2 °C 1019.5 hPa WNW 6.4 km/h 11.3 km/h 76% 0 mm
10:44 15.4 °C 11.2 °C 1019.5 hPa WNW 8 km/h 9.7 km/h 76% 0 mm
10:49 15.3 °C 10.9 °C 1019.5 hPa WNW 4.8 km/h 9.7 km/h 75% 0 mm
10:54 15.1 °C 10.8 °C 1019.5 hPa NW 3.2 km/h 9.7 km/h 76% 0 mm
10:59 15.2 °C 10.9 °C 1019.5 hPa NW 3.2 km/h 6.4 km/h 76% 0 mm
11:04 15 °C 10.4 °C 1019.5 hPa WNW 3.2 km/h 11.3 km/h 74% 0 mm
11:09 15.2 °C 11 °C 1019.9 hPa WNW 3.2 km/h 11.3 km/h 76% 0 mm
11:14 15.2 °C 10.8 °C 1019.9 hPa NW 1.6 km/h 8 km/h 75% 0 mm
11:19 15.4 °C 11.1 °C 1019.9 hPa WNW 8 km/h 11.3 km/h 75% 0 mm
11:24 15.8 °C 10.9 °C 1019.9 hPa NW 4.8 km/h 11.3 km/h 73% 0 mm
11:29 15.7 °C 11.1 °C 1019.9 hPa WNW 3.2 km/h 9.7 km/h 74% 0 mm
11:34 15.6 °C 11.2 °C 1019.9 hPa Calm   9.7 km/h 75% 0 mm
11:39 16.4 °C 12.2 °C 1019.9 hPa WNW 6.4 km/h 9.7 km/h 76% 0 mm
11:44 16.4 °C 11.3 °C 1019.9 hPa North 9.7 km/h 12.9 km/h 72% 0 mm
11:49 15.4 °C 10.2 °C 1020.2 hPa NNW 4.8 km/h 12.9 km/h 71% 0 mm
11:54 15.2 °C 10.8 °C 1019.9 hPa NW 6.4 km/h 12.9 km/h 75% 0 mm
11:59 15.4 °C 10.8 °C 1019.9 hPa WNW 6.4 km/h 12.9 km/h 74% 0 mm
12:04 15.4 °C 10.8 °C 1020.2 hPa WNW 6.4 km/h 12.9 km/h 74% 0 mm
12:09 15.2 °C 11 °C 1020.2 hPa NW 4.8 km/h 14.5 km/h 76% 0 mm
12:14 14.8 °C 10.6 °C 1020.2 hPa NW 6.4 km/h 19.3 km/h 76% 0 mm
12:19 14.8 °C 10.8 °C 1020.2 hPa NW 12.9 km/h 12.9 km/h 77% 0 mm
12:24 14.8 °C 10.8 °C 1020.2 hPa North 3.2 km/h 12.9 km/h 77% 0 mm
12:29 14.9 °C 10.7 °C 1020.5 hPa NW 3.2 km/h 12.9 km/h 76% 0 mm
12:34 15.2 °C 10.6 °C 1020.5 hPa NW 3.2 km/h 9.7 km/h 74% 0 mm
12:39 15.2 °C 11 °C 1020.5 hPa NW 6.4 km/h 9.7 km/h 76% 0 mm
12:44 15.6 °C 11.2 °C 1020.5 hPa NNW 8 km/h 11.3 km/h 75% 0 mm
12:49 15.4 °C 10.4 °C 1020.5 hPa NW 3.2 km/h 8 km/h 72% 0 mm
12:54 15.4 °C 10.8 °C 1020.5 hPa West 4.8 km/h 9.7 km/h 74% 0 mm
12:59 15.8 °C 10.9 °C 1020.5 hPa WNW 6.4 km/h 12.9 km/h 73% 0 mm
13:04 15.7 °C 10.9 °C 1020.5 hPa NW 3.2 km/h 11.3 km/h 73% 0 mm
13:09 16.3 °C 11.3 °C 1020.5 hPa West 1.6 km/h 12.9 km/h 72% 0 mm
13:14 16.7 °C 11.4 °C 1020.5 hPa WNW 6.4 km/h 8 km/h 71% 0 mm
13:19 16.4 °C 10.9 °C 1020.5 hPa NW 6.4 km/h 12.9 km/h 70% 0 mm
13:24 15.9 °C 11.3 °C 1020.9 hPa NNE 3.2 km/h 8 km/h 74% 0 mm
13:29 15.3 °C 10.9 °C 1020.9 hPa NNE 4.8 km/h 16.1 km/h 75% 0 mm
13:34 15.2 °C 11.2 °C 1020.9 hPa NE 4.8 km/h 16.1 km/h 77% 0 mm
13:39 15.2 °C 11.2 °C 1020.9 hPa NE 4.8 km/h 12.9 km/h 77% 0 mm
13:44 15.1 °C 10.8 °C 1020.9 hPa NE 4.8 km/h 12.9 km/h 76% 0 mm
13:49 15.3 °C 11.3 °C 1020.9 hPa North 3.2 km/h 11.3 km/h 77% 0 mm
13:54 16.5 °C 12.3 °C 1020.9 hPa NE 1.6 km/h 9.7 km/h 76% 0 mm
13:59 16.4 °C 11.7 °C 1020.9 hPa Calm   8 km/h 74% 0 mm
14:04 16.1 °C 10.2 °C 1020.9 hPa Calm   6.4 km/h 68% 0 mm
14:09 16.2 °C 10.3 °C 1020.9 hPa WSW 4.8 km/h 8 km/h 68% 0 mm
14:14 16.2 °C 10.7 °C 1020.9 hPa SW 8 km/h 11.3 km/h 70% 0 mm
14:19 16.1 °C 10.6 °C 1020.9 hPa WSW 3.2 km/h 14.5 km/h 70% 0 mm
14:24 16.7 °C 12.1 °C 1020.9 hPa ESE 3.2 km/h 12.9 km/h 74% 0 mm
14:29 16.5 °C 11.4 °C 1020.9 hPa NE 4.8 km/h 14.5 km/h 72% 0 mm
14:34 15.6 °C 10.7 °C 1021.2 hPa NE 6.4 km/h 14.5 km/h 73% 0 mm
14:39 15.4 °C 10.8 °C 1021.2 hPa NE 4.8 km/h 11.3 km/h 74% 0 mm
14:44 15.1 °C 10.5 °C 1021.2 hPa ENE 3.2 km/h 11.3 km/h 74% 0 mm
14:49 15.1 °C 11.1 °C 1021.2 hPa East 3.2 km/h 11.3 km/h 77% 0 mm
14:54 15 °C 11.4 °C 1021.2 hPa ESE 1.6 km/h 8 km/h 79% 0 mm
14:59 15.4 °C 11.2 °C 1021.2 hPa SSW 4.8 km/h 9.7 km/h 76% 0 mm
15:04 15.4 °C 11.1 °C 1021.2 hPa SSE 4.8 km/h 11.3 km/h 75% 0 mm
15:09 16.3 °C 12.1 °C 1021.2 hPa South 4.8 km/h 11.3 km/h 76% 0 mm
15:14 16.8 °C 11.6 °C 1021.2 hPa South 6.4 km/h 11.3 km/h 71% 0 mm
15:19 16.2 °C 10.9 °C 1021.2 hPa South 1.6 km/h 11.3 km/h 71% 0 mm
15:24 15.9 °C 11.1 °C 1021.2 hPa Calm   4.8 km/h 73% 0 mm
15:29 15.8 °C 11 °C 1021.2 hPa SW 6.4 km/h 11.3 km/h 73% 0 mm
15:34 15.7 °C 11.1 °C 1021.2 hPa SW 4.8 km/h 11.3 km/h 74% 0 mm
15:39 15.4 °C 10.6 °C 1021.2 hPa SSW 4.8 km/h 11.3 km/h 73% 0 mm
15:44 15.4 °C 10.6 °C 1021.2 hPa SSW 4.8 km/h 11.3 km/h 73% 0 mm
15:49 15.6 °C 11 °C 1021.2 hPa SSW 3.2 km/h 8 km/h 74% 0 mm
15:54 15.6 °C 11 °C 1021.6 hPa South 4.8 km/h 8 km/h 74% 0 mm
15:59 15.8 °C 11.3 °C 1021.2 hPa SSW 4.8 km/h 8 km/h 75% 0 mm
16:04 15.9 °C 11.1 °C 1021.2 hPa WSW 3.2 km/h 8 km/h 73% 0 mm
16:09 16.1 °C 10.6 °C 1021.2 hPa SW 4.8 km/h 12.9 km/h 70% 0 mm
16:14 15.9 °C 10.6 °C 1021.2 hPa WSW 6.4 km/h 16.1 km/h 71% 0 mm
16:19 15.7 °C 10.3 °C 1021.2 hPa WSW 6.4 km/h 16.1 km/h 70% 0 mm
16:24 15.8 °C 10.6 °C 1021.2 hPa SW 6.4 km/h 16.1 km/h 71% 0 mm
16:29 15.7 °C 10.5 °C 1021.2 hPa West 4.8 km/h 12.9 km/h 71% 0 mm
16:34 15.7 °C 10.6 °C 1021.6 hPa WNW 6.4 km/h 11.3 km/h 72% 0 mm
16:39 15.5 °C 10.4 °C 1021.6 hPa WNW 6.4 km/h 11.3 km/h 72% 0 mm
16:44 15.3 °C 10.3 °C 1021.6 hPa West 6.4 km/h 12.9 km/h 72% 0 mm
16:49 15.2 °C 10.2 °C 1021.6 hPa West 4.8 km/h 12.9 km/h 72% 0 mm
16:54 15.2 °C 10.4 °C 1021.6 hPa West 3.2 km/h 9.7 km/h 73% 0 mm
16:59 15.3 °C 10.4 °C 1021.6 hPa West 3.2 km/h 6.4 km/h 73% 0 mm
17:04 15.5 °C 10.4 °C 1021.6 hPa Calm   4.8 km/h 72% 0 mm
17:09 15.8 °C 10.7 °C 1021.6 hPa West 1.6 km/h 4.8 km/h 72% 0 mm
17:14 15.9 °C 10.6 °C 1021.6 hPa West 1.6 km/h 6.4 km/h 71% 0 mm
17:19 16.3 °C 11 °C 1021.6 hPa West 3.2 km/h 8 km/h 71% 0 mm
17:24 16.4 °C 11.2 °C 1021.6 hPa West 3.2 km/h 8 km/h 71% 0 mm
17:29 16.3 °C 10.6 °C 1021.6 hPa Calm   6.4 km/h 69% 0 mm
17:34 16.2 °C 10.4 °C 1021.6 hPa Calm     69% 0 mm
17:39 16 °C 10.6 °C 1021.9 hPa West 1.6 km/h 3.2 km/h 70% 0 mm
17:44 15.9 °C 10.7 °C 1021.9 hPa Calm   3.2 km/h 71% 0 mm
17:49 16 °C 11.2 °C 1021.9 hPa Calm     73% 0 mm
17:54 16.1 °C 10.8 °C 1021.9 hPa Calm   1.6 km/h 71% 0 mm
17:59 16.3 °C 11 °C 1021.9 hPa Calm   3.2 km/h 71% 0 mm
18:04 16.4 °C 10.7 °C 1021.9 hPa Calm   4.8 km/h 69% 0 mm
18:09 16.3 °C 10.8 °C 1021.9 hPa Calm   4.8 km/h 70% 0 mm
18:14 16.1 °C 10.6 °C 1021.9 hPa North 1.6 km/h 3.2 km/h 70% 0 mm
18:19 16 °C 10.3 °C 1021.9 hPa Calm   6.4 km/h 69% 0 mm
18:24 15.9 °C 10.2 °C 1021.9 hPa North 1.6 km/h 6.4 km/h 69% 0 mm
18:29 15.8 °C 10.2 °C 1021.9 hPa NNW 1.6 km/h 6.4 km/h 69% 0 mm
18:34 15.9 °C 10.4 °C 1021.9 hPa Calm   4.8 km/h 70% 0 mm
18:39 15.9 °C 10.2 °C 1022.2 hPa NNW 4.8 km/h 6.4 km/h 69% 0 mm
18:44 15.8 °C 10.3 °C 1022.2 hPa Calm   6.4 km/h 70% 0 mm
18:49 15.6 °C 9.9 °C 1022.2 hPa North 1.6 km/h 6.4 km/h 69% 0 mm
18:54 15.4 °C 10 °C 1022.2 hPa North 1.6 km/h 6.4 km/h 70% 0 mm
18:59 15.3 °C 9.8 °C 1022.2 hPa NNW 1.6 km/h 9.7 km/h 70% 0 mm
19:04 15.2 °C 9.8 °C 1022.2 hPa Calm   3.2 km/h 70% 0 mm
19:09 15.2 °C 9.9 °C 1022.2 hPa Calm     71% 0 mm
19:14 15.2 °C 10.2 °C 1022.2 hPa North 1.6 km/h 8 km/h 72% 0 mm
19:19 15.2 °C 9.9 °C 1022.6 hPa Calm   4.8 km/h 71% 0 mm
19:24 15.1 °C 10.1 °C 1022.6 hPa North 1.6 km/h 4.8 km/h 72% 0 mm
19:29 14.9 °C 9.9 °C 1022.6 hPa Calm   3.2 km/h 72% 0 mm
19:34 14.8 °C 10.1 °C 1022.6 hPa Calm   3.2 km/h 73% 0 mm
19:39 14.6 °C 9.8 °C 1022.6 hPa Calm     73% 0 mm
19:44 14.4 °C 9.8 °C 1022.9 hPa Calm     74% 0 mm
19:49 14.2 °C 9.8 °C 1022.9 hPa Calm     75% 0 mm
19:54 14.1 °C 9.7 °C 1022.9 hPa Calm     75% 0 mm
19:59 13.9 °C 9.8 °C 1023.2 hPa Calm     76% 0 mm
20:04 14 °C 9.8 °C 1023.2 hPa Calm     76% 0 mm
20:09 14.1 °C 9.9 °C 1023.2 hPa Calm     76% 0 mm
20:14 14.1 °C 9.9 °C 1023.2 hPa Calm     76% 0 mm
20:19 13.8 °C 9.7 °C 1023.2 hPa Calm     76% 0 mm
20:24 13.7 °C 9.7 °C 1023.2 hPa Calm     77% 0 mm
20:29 13.6 °C 9.7 °C 1023.2 hPa Calm     77% 0 mm
20:34 13.5 °C 9.7 °C 1023.2 hPa Calm     78% 0 mm
20:39 13.3 °C 9.5 °C 1023.6 hPa Calm     78% 0 mm
20:44 13.2 °C 9.7 °C 1023.6 hPa Calm     79% 0 mm
20:49 13.1 °C 9.6 °C 1023.6 hPa Calm     79% 0 mm
20:54 12.9 °C 9.4 °C 1023.6 hPa Calm     79% 0 mm
20:59 12.8 °C 9.4 °C 1023.9 hPa Calm     80% 0 mm
21:04 12.8 °C 9.6 °C 1023.9 hPa Calm     81% 0 mm
21:09 12.8 °C 9.7 °C 1023.9 hPa Calm     81% 0 mm
21:14 12.9 °C 9.8 °C 1023.9 hPa Calm     81% 0 mm
21:19 13 °C 9.8 °C 1023.9 hPa Calm     81% 0 mm
21:24 13 °C 9.8 °C 1023.9 hPa Calm     81% 0 mm
21:29 13.1 °C 9.9 °C 1024.3 hPa Calm     81% 0 mm
21:34 13.2 °C 10 °C 1024.3 hPa Calm     81% 0 mm
21:39 13.2 °C 10.1 °C 1024.3 hPa Calm     81% 0 mm
21:44 13.3 °C 10.2 °C 1024.3 hPa Calm     81% 0 mm
21:49 13.3 °C 9.9 °C 1024.3 hPa Calm     80% 0 mm
21:54 13.3 °C 9.9 °C 1024.3 hPa Calm     80% 0 mm
21:59 13.3 °C 10.2 °C 1024.3 hPa Calm     81% 0 mm
22:04 13.4 °C 10 °C 1024.3 hPa Calm   3.2 km/h 80% 0 mm
22:09 13.5 °C 10.1 °C 1024.3 hPa Calm   8 km/h 80% 0 mm
22:14 13.6 °C 10 °C 1024.3 hPa North 1.6 km/h 11.3 km/h 79% 0 mm
22:19 13.6 °C 10.1 °C 1024.3 hPa Calm   4.8 km/h 79% 0 mm
22:24 13.6 °C 9.8 °C 1024.6 hPa NNW 1.6 km/h 9.7 km/h 78% 0 mm
22:29 13.6 °C 9.8 °C 1024.6 hPa Calm   6.4 km/h 78% 0 mm
22:34 13.6 °C 9.8 °C 1024.6 hPa Calm   6.4 km/h 78% 0 mm
22:39 13.6 °C 10 °C 1024.6 hPa NNW 1.6 km/h 6.4 km/h 79% 0 mm
22:44 13.5 °C 9.9 °C 1024.6 hPa Calm   4.8 km/h 79% 0 mm
22:49 13.4 °C 9.9 °C 1024.9 hPa Calm   3.2 km/h 79% 0 mm
22:54 13.4 °C 9.8 °C 1024.6 hPa Calm     79% 0 mm
22:59 13.3 °C 9.8 °C 1024.9 hPa North 3.2 km/h 8 km/h 79% 0 mm
23:04 13.3 °C 9.8 °C 1024.9 hPa NNW 1.6 km/h 8 km/h 79% 0 mm
23:09 13.3 °C 9.8 °C 1024.9 hPa NNW 1.6 km/h 8 km/h 79% 0 mm
23:19 13.3 °C 9.7 °C 1025.3 hPa Calm   8 km/h 79% 0 mm
23:24 13.2 °C 9.7 °C 1025.3 hPa Calm   4.8 km/h 79% 0 mm
23:29 13.2 °C 9.8 °C 1025.3 hPa Calm   4.8 km/h 80% 0 mm
23:34 13.1 °C 9.7 °C 1025.3 hPa Calm   8 km/h 80% 0 mm
23:39 12.9 °C 9.3 °C 1025.3 hPa NNW 1.6 km/h 8 km/h 79% 0 mm
23:44 12.7 °C 9.3 °C 1025.3 hPa Calm   4.8 km/h 80% 0 mm
23:49 12.5 °C 9.2 °C 1025.3 hPa Calm     80% 0 mm
23:54 12.3 °C 8.9 °C 1025.3 hPa Calm   1.6 km/h 80% 0 mm
23:59 12.1 °C 8.9 °C 1025.6 hPa Calm     81% 0 mm
Buffalo, New York, USA
Compliments of Weather Underground - 2.5 mb